sensor_id;sensor_type;location;lat;lon;timestamp;temperature;humidity
678;DHT22;321;48.814;9.132;2023-03-01T00:02:13;0.60;99.90
678;DHT22;321;48.814;9.132;2023-03-01T00:04:38;0.60;99.90
678;DHT22;321;48.814;9.132;2023-03-01T00:07:04;0.60;99.90
678;DHT22;321;48.814;9.132;2023-03-01T00:09:29;0.60;99.90
678;DHT22;321;48.814;9.132;2023-03-01T00:11:55;0.70;99.90
678;DHT22;321;48.814;9.132;2023-03-01T00:14:20;0.70;99.90
678;DHT22;321;48.814;9.132;2023-03-01T00:16:46;0.70;99.90
678;DHT22;321;48.814;9.132;2023-03-01T00:19:19;0.60;99.90
678;DHT22;321;48.814;9.132;2023-03-01T00:21:46;0.60;99.90
678;DHT22;321;48.814;9.132;2023-03-01T00:24:11;0.60;99.90
678;DHT22;321;48.814;9.132;2023-03-01T00:26:37;0.60;99.90
678;DHT22;321;48.814;9.132;2023-03-01T00:29:03;0.60;99.90
678;DHT22;321;48.814;9.132;2023-03-01T00:31:30;0.60;99.90
678;DHT22;321;48.814;9.132;2023-03-01T00:34:01;0.50;99.90
678;DHT22;321;48.814;9.132;2023-03-01T00:36:30;0.50;99.90
678;DHT22;321;48.814;9.132;2023-03-01T00:38:56;0.40;99.90
678;DHT22;321;48.814;9.132;2023-03-01T00:41:22;0.50;99.90
678;DHT22;321;48.814;9.132;2023-03-01T00:43:49;0.50;99.90
678;DHT22;321;48.814;9.132;2023-03-01T00:46:20;0.20;99.90
678;DHT22;321;48.814;9.132;2023-03-01T00:48:46;0.00;99.90
678;DHT22;321;48.814;9.132;2023-03-01T00:51:20;0.00;99.90
678;DHT22;321;48.814;9.132;2023-03-01T00:53:47;0.20;99.90
678;DHT22;321;48.814;9.132;2023-03-01T00:56:14;0.30;99.90
678;DHT22;321;48.814;9.132;2023-03-01T00:58:40;0.30;99.90
678;DHT22;321;48.814;9.132;2023-03-01T01:01:12;0.40;99.90
678;DHT22;321;48.814;9.132;2023-03-01T01:04:01;0.40;99.90
678;DHT22;321;48.814;9.132;2023-03-01T01:06:33;0.30;99.90
678;DHT22;321;48.814;9.132;2023-03-01T01:08:59;0.20;99.90
678;DHT22;321;48.814;9.132;2023-03-01T01:11:27;0.20;99.90
678;DHT22;321;48.814;9.132;2023-03-01T01:13:52;0.20;99.90
678;DHT22;321;48.814;9.132;2023-03-01T01:16:20;0.30;99.90
678;DHT22;321;48.814;9.132;2023-03-01T01:18:46;0.20;99.90
678;DHT22;321;48.814;9.132;2023-03-01T01:21:15;0.10;99.90
678;DHT22;321;48.814;9.132;2023-03-01T01:23:41;0.00;99.90
678;DHT22;321;48.814;9.132;2023-03-01T01:26:28;-0.20;99.90
678;DHT22;321;48.814;9.132;2023-03-01T01:28:54;-0.20;99.90
678;DHT22;321;48.814;9.132;2023-03-01T01:31:20;-0.20;99.90
678;DHT22;321;48.814;9.132;2023-03-01T01:33:49;-0.10;99.90
678;DHT22;321;48.814;9.132;2023-03-01T01:36:15;-0.20;99.90
678;DHT22;321;48.814;9.132;2023-03-01T01:38:41;-0.10;99.90
678;DHT22;321;48.814;9.132;2023-03-01T01:41:08;0.00;99.90
678;DHT22;321;48.814;9.132;2023-03-01T01:43:39;0.00;99.90
678;DHT22;321;48.814;9.132;2023-03-01T01:46:31;0.00;99.90
678;DHT22;321;48.814;9.132;2023-03-01T01:49:01;0.10;99.90
678;DHT22;321;48.814;9.132;2023-03-01T01:51:31;0.00;99.90
678;DHT22;321;48.814;9.132;2023-03-01T01:54:08;0.10;99.90
678;DHT22;321;48.814;9.132;2023-03-01T01:56:40;0.00;99.90
678;DHT22;321;48.814;9.132;2023-03-01T01:59:08;-0.10;99.90
678;DHT22;321;48.814;9.132;2023-03-01T02:01:34;0.00;99.90
678;DHT22;321;48.814;9.132;2023-03-01T02:04:00;0.00;99.90
678;DHT22;321;48.814;9.132;2023-03-01T02:06:49;0.10;99.90
678;DHT22;321;48.814;9.132;2023-03-01T02:09:14;0.10;99.90
678;DHT22;321;48.814;9.132;2023-03-01T02:11:41;0.20;99.90
678;DHT22;321;48.814;9.132;2023-03-01T02:14:08;0.20;99.90
678;DHT22;321;48.814;9.132;2023-03-01T02:16:34;0.10;99.90
678;DHT22;321;48.814;9.132;2023-03-01T02:19:01;0.30;99.90
678;DHT22;321;48.814;9.132;2023-03-01T02:21:51;0.40;99.90
678;DHT22;321;48.814;9.132;2023-03-01T02:27:16;0.40;99.90
678;DHT22;321;48.814;9.132;2023-03-01T02:29:43;0.50;99.90
678;DHT22;321;48.814;9.132;2023-03-01T02:32:11;0.60;99.90
678;DHT22;321;48.814;9.132;2023-03-01T02:34:38;0.70;99.90
678;DHT22;321;48.814;9.132;2023-03-01T02:37:14;0.70;99.90
678;DHT22;321;48.814;9.132;2023-03-01T02:39:52;0.80;99.90
678;DHT22;321;48.814;9.132;2023-03-01T02:42:26;0.80;99.90
678;DHT22;321;48.814;9.132;2023-03-01T02:44:51;0.90;99.90
678;DHT22;321;48.814;9.132;2023-03-01T02:47:19;0.90;99.90
678;DHT22;321;48.814;9.132;2023-03-01T02:49:44;1.00;99.90
678;DHT22;321;48.814;9.132;2023-03-01T02:52:41;1.10;99.90
678;DHT22;321;48.814;9.132;2023-03-01T02:55:11;1.20;99.90
678;DHT22;321;48.814;9.132;2023-03-01T02:57:40;1.20;99.90
678;DHT22;321;48.814;9.132;2023-03-01T03:00:10;1.20;99.90
678;DHT22;321;48.814;9.132;2023-03-01T03:02:47;1.20;99.90
678;DHT22;321;48.814;9.132;2023-03-01T03:07:46;1.40;99.90
678;DHT22;321;48.814;9.132;2023-03-01T03:10:18;1.40;99.90
678;DHT22;321;48.814;9.132;2023-03-01T03:12:48;1.50;99.90
678;DHT22;321;48.814;9.132;2023-03-01T03:15:14;1.40;99.90
678;DHT22;321;48.814;9.132;2023-03-01T03:17:41;1.50;99.90
678;DHT22;321;48.814;9.132;2023-03-01T03:20:10;1.60;99.90
678;DHT22;321;48.814;9.132;2023-03-01T03:22:38;1.60;99.90
678;DHT22;321;48.814;9.132;2023-03-01T03:25:05;1.50;99.90
678;DHT22;321;48.814;9.132;2023-03-01T03:27:34;1.60;99.90
678;DHT22;321;48.814;9.132;2023-03-01T03:29:59;1.70;99.90
678;DHT22;321;48.814;9.132;2023-03-01T03:32:25;1.70;99.90
678;DHT22;321;48.814;9.132;2023-03-01T03:34:50;1.60;99.90
678;DHT22;321;48.814;9.132;2023-03-01T03:37:16;1.70;99.90
678;DHT22;321;48.814;9.132;2023-03-01T03:40:00;1.80;99.90
678;DHT22;321;48.814;9.132;2023-03-01T03:42:26;1.80;99.90
678;DHT22;321;48.814;9.132;2023-03-01T03:44:51;1.90;99.90
678;DHT22;321;48.814;9.132;2023-03-01T03:47:17;1.90;99.90
678;DHT22;321;48.814;9.132;2023-03-01T03:49:43;1.90;99.90
678;DHT22;321;48.814;9.132;2023-03-01T03:52:08;1.90;99.90
678;DHT22;321;48.814;9.132;2023-03-01T03:54:39;2.00;99.90
678;DHT22;321;48.814;9.132;2023-03-01T03:57:06;1.80;99.90
678;DHT22;321;48.814;9.132;2023-03-01T03:59:32;2.00;99.90
678;DHT22;321;48.814;9.132;2023-03-01T04:01:57;2.10;99.90
678;DHT22;321;48.814;9.132;2023-03-01T04:04:23;2.10;99.90
678;DHT22;321;48.814;9.132;2023-03-01T04:06:48;2.10;99.90
678;DHT22;321;48.814;9.132;2023-03-01T04:09:14;2.10;99.90
678;DHT22;321;48.814;9.132;2023-03-01T04:11:39;2.20;99.90
678;DHT22;321;48.814;9.132;2023-03-01T04:14:05;2.20;99.90
678;DHT22;321;48.814;9.132;2023-03-01T04:16:31;2.20;99.90
678;DHT22;321;48.814;9.132;2023-03-01T04:18:56;2.20;99.90
678;DHT22;321;48.814;9.132;2023-03-01T04:21:24;2.20;99.90
678;DHT22;321;48.814;9.132;2023-03-01T04:23:51;2.20;99.90
678;DHT22;321;48.814;9.132;2023-03-01T04:26:18;2.30;99.90
678;DHT22;321;48.814;9.132;2023-03-01T04:28:44;2.40;99.90
678;DHT22;321;48.814;9.132;2023-03-01T04:31:13;2.30;99.90
678;DHT22;321;48.814;9.132;2023-03-01T04:33:40;2.20;99.90
678;DHT22;321;48.814;9.132;2023-03-01T04:36:07;2.30;99.90
678;DHT22;321;48.814;9.132;2023-03-01T04:38:34;2.30;99.90
678;DHT22;321;48.814;9.132;2023-03-01T04:41:00;2.30;99.90
678;DHT22;321;48.814;9.132;2023-03-01T04:43:25;2.30;99.90
678;DHT22;321;48.814;9.132;2023-03-01T04:45:51;2.40;99.90
678;DHT22;321;48.814;9.132;2023-03-01T04:48:16;2.40;99.90
678;DHT22;321;48.814;9.132;2023-03-01T04:50:42;2.40;99.90
678;DHT22;321;48.814;9.132;2023-03-01T04:53:07;2.30;99.90
678;DHT22;321;48.814;9.132;2023-03-01T04:55:33;2.30;99.90
678;DHT22;321;48.814;9.132;2023-03-01T04:57:59;2.30;99.90
678;DHT22;321;48.814;9.132;2023-03-01T05:00:24;2.30;99.90
678;DHT22;321;48.814;9.132;2023-03-01T05:02:58;2.40;99.90
678;DHT22;321;48.814;9.132;2023-03-01T05:05:31;2.40;99.90
678;DHT22;321;48.814;9.132;2023-03-01T05:07:59;2.50;99.90
678;DHT22;321;48.814;9.132;2023-03-01T05:10:27;2.40;99.90
678;DHT22;321;48.814;9.132;2023-03-01T05:12:59;2.50;99.90
678;DHT22;321;48.814;9.132;2023-03-01T05:15:26;2.50;99.90
678;DHT22;321;48.814;9.132;2023-03-01T05:17:53;2.60;99.90
678;DHT22;321;48.814;9.132;2023-03-01T05:20:19;2.50;99.90
678;DHT22;321;48.814;9.132;2023-03-01T05:22:48;2.60;99.90
678;DHT22;321;48.814;9.132;2023-03-01T05:25:14;2.60;99.90
678;DHT22;321;48.814;9.132;2023-03-01T05:27:39;2.60;99.90
678;DHT22;321;48.814;9.132;2023-03-01T05:30:05;2.70;99.90
678;DHT22;321;48.814;9.132;2023-03-01T05:32:40;2.70;99.90
678;DHT22;321;48.814;9.132;2023-03-01T05:35:06;2.70;99.90
678;DHT22;321;48.814;9.132;2023-03-01T05:37:32;2.70;99.90
678;DHT22;321;48.814;9.132;2023-03-01T05:39:57;2.60;99.90
678;DHT22;321;48.814;9.132;2023-03-01T05:42:23;2.40;99.90
678;DHT22;321;48.814;9.132;2023-03-01T05:44:48;2.60;99.90
678;DHT22;321;48.814;9.132;2023-03-01T05:47:14;2.70;99.90
678;DHT22;321;48.814;9.132;2023-03-01T05:49:39;2.70;99.90
678;DHT22;321;48.814;9.132;2023-03-01T05:52:05;2.70;99.90
678;DHT22;321;48.814;9.132;2023-03-01T05:54:30;2.80;99.90
678;DHT22;321;48.814;9.132;2023-03-01T05:56:56;2.90;99.90
678;DHT22;321;48.814;9.132;2023-03-01T05:59:21;2.90;99.90
678;DHT22;321;48.814;9.132;2023-03-01T06:01:47;2.80;99.90
678;DHT22;321;48.814;9.132;2023-03-01T06:04:12;2.80;99.90
678;DHT22;321;48.814;9.132;2023-03-01T06:06:38;2.80;99.90
678;DHT22;321;48.814;9.132;2023-03-01T06:09:05;2.80;99.90
678;DHT22;321;48.814;9.132;2023-03-01T06:11:34;2.70;99.90
678;DHT22;321;48.814;9.132;2023-03-01T06:14:00;2.80;99.90
678;DHT22;321;48.814;9.132;2023-03-01T06:16:25;2.80;99.90
678;DHT22;321;48.814;9.132;2023-03-01T06:18:51;2.90;99.90
678;DHT22;321;48.814;9.132;2023-03-01T06:21:16;2.80;99.90
678;DHT22;321;48.814;9.132;2023-03-01T06:23:42;2.70;99.90
678;DHT22;321;48.814;9.132;2023-03-01T06:26:08;2.80;99.90
678;DHT22;321;48.814;9.132;2023-03-01T06:28:34;2.80;99.90
678;DHT22;321;48.814;9.132;2023-03-01T06:31:00;2.90;99.90
678;DHT22;321;48.814;9.132;2023-03-01T06:33:26;3.00;99.90
678;DHT22;321;48.814;9.132;2023-03-01T06:35:54;2.80;99.90
678;DHT22;321;48.814;9.132;2023-03-01T06:38:20;2.70;99.90
678;DHT22;321;48.814;9.132;2023-03-01T06:40:51;2.80;99.90
678;DHT22;321;48.814;9.132;2023-03-01T06:43:18;2.80;99.90
678;DHT22;321;48.814;9.132;2023-03-01T06:45:43;2.90;99.90
678;DHT22;321;48.814;9.132;2023-03-01T06:48:09;2.90;99.90
678;DHT22;321;48.814;9.132;2023-03-01T06:50:35;3.00;99.90
678;DHT22;321;48.814;9.132;2023-03-01T06:53:01;3.10;99.90
678;DHT22;321;48.814;9.132;2023-03-01T06:55:27;3.20;99.90
678;DHT22;321;48.814;9.132;2023-03-01T06:57:56;3.40;99.90
678;DHT22;321;48.814;9.132;2023-03-01T07:00:22;3.30;99.90
678;DHT22;321;48.814;9.132;2023-03-01T07:02:48;3.40;99.90
678;DHT22;321;48.814;9.132;2023-03-01T07:05:14;3.50;99.90
678;DHT22;321;48.814;9.132;2023-03-01T07:07:39;3.50;99.90
678;DHT22;321;48.814;9.132;2023-03-01T07:10:06;3.50;99.90
678;DHT22;321;48.814;9.132;2023-03-01T07:12:32;3.60;99.90
678;DHT22;321;48.814;9.132;2023-03-01T07:14:57;3.50;99.90
678;DHT22;321;48.814;9.132;2023-03-01T07:17:23;3.60;99.90
678;DHT22;321;48.814;9.132;2023-03-01T07:19:48;3.30;99.90
678;DHT22;321;48.814;9.132;2023-03-01T07:22:14;3.30;99.90
678;DHT22;321;48.814;9.132;2023-03-01T07:24:41;3.10;99.90
678;DHT22;321;48.814;9.132;2023-03-01T07:27:06;2.70;99.90
678;DHT22;321;48.814;9.132;2023-03-01T07:29:32;2.60;99.90
678;DHT22;321;48.814;9.132;2023-03-01T07:31:58;2.70;99.90
678;DHT22;321;48.814;9.132;2023-03-01T07:34:24;2.70;99.90
678;DHT22;321;48.814;9.132;2023-03-01T07:36:49;2.40;99.90
678;DHT22;321;48.814;9.132;2023-03-01T07:39:15;2.30;99.90
678;DHT22;321;48.814;9.132;2023-03-01T07:41:40;2.40;99.90
678;DHT22;321;48.814;9.132;2023-03-01T07:44:06;2.40;99.90
678;DHT22;321;48.814;9.132;2023-03-01T07:46:32;2.50;99.90
678;DHT22;321;48.814;9.132;2023-03-01T07:48:57;2.60;99.90
678;DHT22;321;48.814;9.132;2023-03-01T07:51:23;2.80;99.90
678;DHT22;321;48.814;9.132;2023-03-01T07:53:49;2.30;99.90
678;DHT22;321;48.814;9.132;2023-03-01T07:56:15;2.40;99.90
678;DHT22;321;48.814;9.132;2023-03-01T07:58:45;2.60;99.90
678;DHT22;321;48.814;9.132;2023-03-01T08:01:18;2.90;99.90
678;DHT22;321;48.814;9.132;2023-03-01T08:03:44;2.90;99.90
678;DHT22;321;48.814;9.132;2023-03-01T08:06:11;2.90;99.90
678;DHT22;321;48.814;9.132;2023-03-01T08:08:37;2.80;99.90
678;DHT22;321;48.814;9.132;2023-03-01T08:11:04;2.90;99.90
678;DHT22;321;48.814;9.132;2023-03-01T08:13:31;2.90;99.90
678;DHT22;321;48.814;9.132;2023-03-01T08:16:06;3.00;99.90
678;DHT22;321;48.814;9.132;2023-03-01T08:18:32;2.90;99.90
678;DHT22;321;48.814;9.132;2023-03-01T08:21:05;3.20;99.90
678;DHT22;321;48.814;9.132;2023-03-01T08:23:31;3.10;99.90
678;DHT22;321;48.814;9.132;2023-03-01T08:26:08;3.30;99.90
678;DHT22;321;48.814;9.132;2023-03-01T08:28:34;2.80;99.90
678;DHT22;321;48.814;9.132;2023-03-01T08:31:00;3.00;99.90
678;DHT22;321;48.814;9.132;2023-03-01T08:33:26;3.30;99.90
678;DHT22;321;48.814;9.132;2023-03-01T08:35:51;3.30;99.90
678;DHT22;321;48.814;9.132;2023-03-01T08:38:17;3.20;99.90
678;DHT22;321;48.814;9.132;2023-03-01T08:40:42;3.50;99.90
678;DHT22;321;48.814;9.132;2023-03-01T08:43:08;3.90;99.90
678;DHT22;321;48.814;9.132;2023-03-01T08:45:34;4.10;99.40
678;DHT22;321;48.814;9.132;2023-03-01T08:47:59;4.30;98.70
678;DHT22;321;48.814;9.132;2023-03-01T08:50:25;4.40;98.10
678;DHT22;321;48.814;9.132;2023-03-01T08:52:50;4.40;97.70
678;DHT22;321;48.814;9.132;2023-03-01T08:55:16;4.60;98.20
678;DHT22;321;48.814;9.132;2023-03-01T08:57:43;4.70;97.40
678;DHT22;321;48.814;9.132;2023-03-01T09:00:10;4.90;97.20
678;DHT22;321;48.814;9.132;2023-03-01T09:02:36;5.00;96.50
678;DHT22;321;48.814;9.132;2023-03-01T09:05:02;5.30;96.60
678;DHT22;321;48.814;9.132;2023-03-01T09:07:28;5.60;95.40
678;DHT22;321;48.814;9.132;2023-03-01T09:09:54;5.40;95.80
678;DHT22;321;48.814;9.132;2023-03-01T09:12:20;6.20;95.20
678;DHT22;321;48.814;9.132;2023-03-01T09:14:46;6.40;94.30
678;DHT22;321;48.814;9.132;2023-03-01T09:17:12;6.40;94.30
678;DHT22;321;48.814;9.132;2023-03-01T09:19:37;6.70;93.50
678;DHT22;321;48.814;9.132;2023-03-01T09:22:04;7.10;93.10
678;DHT22;321;48.814;9.132;2023-03-01T09:24:29;7.30;92.40
678;DHT22;321;48.814;9.132;2023-03-01T09:26:56;7.50;92.10
678;DHT22;321;48.814;9.132;2023-03-01T09:29:22;7.50;91.50
678;DHT22;321;48.814;9.132;2023-03-01T09:31:48;7.50;91.80
678;DHT22;321;48.814;9.132;2023-03-01T09:34:13;7.60;91.70
678;DHT22;321;48.814;9.132;2023-03-01T09:36:41;8.20;91.30
678;DHT22;321;48.814;9.132;2023-03-01T09:39:07;8.60;90.50
678;DHT22;321;48.814;9.132;2023-03-01T09:44:34;9.30;87.20
678;DHT22;321;48.814;9.132;2023-03-01T09:47:02;9.00;87.10
678;DHT22;321;48.814;9.132;2023-03-01T09:49:35;9.00;87.50
678;DHT22;321;48.814;9.132;2023-03-01T09:54:37;8.70;85.40
678;DHT22;321;48.814;9.132;2023-03-01T10:03:08;9.00;87.30
678;DHT22;321;48.814;9.132;2023-03-01T10:05:54;8.50;86.20
678;DHT22;321;48.814;9.132;2023-03-01T10:08:45;8.40;90.20
678;DHT22;321;48.814;9.132;2023-03-01T10:11:36;9.00;87.20
678;DHT22;321;48.814;9.132;2023-03-01T10:17:00;9.70;83.60
678;DHT22;321;48.814;9.132;2023-03-01T10:19:36;10.00;81.90
678;DHT22;321;48.814;9.132;2023-03-01T10:22:20;10.30;81.50
678;DHT22;321;48.814;9.132;2023-03-01T10:24:48;10.50;80.20
678;DHT22;321;48.814;9.132;2023-03-01T10:27:24;10.10;79.40
678;DHT22;321;48.814;9.132;2023-03-01T10:30:16;10.10;80.00
678;DHT22;321;48.814;9.132;2023-03-01T10:32:45;10.60;79.60
678;DHT22;321;48.814;9.132;2023-03-01T10:35:20;11.10;77.80
678;DHT22;321;48.814;9.132;2023-03-01T10:38:06;11.40;76.30
678;DHT22;321;48.814;9.132;2023-03-01T10:40:34;11.40;74.90
678;DHT22;321;48.814;9.132;2023-03-01T10:43:02;10.70;75.00
678;DHT22;321;48.814;9.132;2023-03-01T10:45:40;11.00;76.80
678;DHT22;321;48.814;9.132;2023-03-01T10:48:25;11.80;76.50
678;DHT22;321;48.814;9.132;2023-03-01T10:53:30;11.10;75.60
678;DHT22;321;48.814;9.132;2023-03-01T10:56:00;11.90;75.50
678;DHT22;321;48.814;9.132;2023-03-01T10:58:26;12.30;71.80
678;DHT22;321;48.814;9.132;2023-03-01T11:01:05;11.90;71.90
678;DHT22;321;48.814;9.132;2023-03-01T11:03:36;11.70;70.40
678;DHT22;321;48.814;9.132;2023-03-01T11:08:38;10.80;72.60
678;DHT22;321;48.814;9.132;2023-03-01T11:16:38;11.70;70.80
678;DHT22;321;48.814;9.132;2023-03-01T11:19:14;10.90;72.20
678;DHT22;321;48.814;9.132;2023-03-01T11:21:56;11.30;72.50
678;DHT22;321;48.814;9.132;2023-03-01T11:26:56;11.00;72.40
678;DHT22;321;48.814;9.132;2023-03-01T11:29:40;11.10;71.50
678;DHT22;321;48.814;9.132;2023-03-01T11:32:09;11.10;73.50
678;DHT22;321;48.814;9.132;2023-03-01T11:37:22;11.10;73.40
678;DHT22;321;48.814;9.132;2023-03-01T11:42:37;10.90;71.90
678;DHT22;321;48.814;9.132;2023-03-01T11:45:10;11.20;72.60
678;DHT22;321;48.814;9.132;2023-03-01T11:50:19;11.70;71.20
678;DHT22;321;48.814;9.132;2023-03-01T12:03:55;11.50;71.90
678;DHT22;321;48.814;9.132;2023-03-01T12:34:01;10.20;73.90
678;DHT22;321;48.814;9.132;2023-03-01T12:36:40;10.30;75.80
678;DHT22;321;48.814;9.132;2023-03-01T12:39:43;9.80;76.90
678;DHT22;321;48.814;9.132;2023-03-01T12:50:21;8.60;79.10
678;DHT22;321;48.814;9.132;2023-03-01T12:52:55;8.60;81.30
678;DHT22;321;48.814;9.132;2023-03-01T12:55:33;8.70;80.90
678;DHT22;321;48.814;9.132;2023-03-01T12:58:05;8.80;81.40
678;DHT22;321;48.814;9.132;2023-03-01T13:06:14;8.70;82.20
678;DHT22;321;48.814;9.132;2023-03-01T13:08:54;8.60;81.60
678;DHT22;321;48.814;9.132;2023-03-01T13:11:23;8.50;81.60
678;DHT22;321;48.814;9.132;2023-03-01T13:13:49;8.40;83.40
678;DHT22;321;48.814;9.132;2023-03-01T13:16:22;8.20;83.20
678;DHT22;321;48.814;9.132;2023-03-01T13:21:34;8.20;84.10
678;DHT22;321;48.814;9.132;2023-03-01T13:23:59;8.50;83.90
678;DHT22;321;48.814;9.132;2023-03-01T13:26:25;8.40;83.30
678;DHT22;321;48.814;9.132;2023-03-01T13:28:56;8.40;83.60
678;DHT22;321;48.814;9.132;2023-03-01T13:34:01;8.40;83.60
678;DHT22;321;48.814;9.132;2023-03-01T13:39:30;8.60;84.10
678;DHT22;321;48.814;9.132;2023-03-01T13:41:52;8.50;82.90
678;DHT22;321;48.814;9.132;2023-03-01T13:46:51;8.40;83.40
678;DHT22;321;48.814;9.132;2023-03-01T13:49:23;8.30;84.50
678;DHT22;321;48.814;9.132;2023-03-01T13:51:51;8.40;83.80
678;DHT22;321;48.814;9.132;2023-03-01T13:54:29;8.50;84.20
678;DHT22;321;48.814;9.132;2023-03-01T13:56:57;8.50;83.30
678;DHT22;321;48.814;9.132;2023-03-01T13:59:23;8.40;84.70
678;DHT22;321;48.814;9.132;2023-03-01T14:01:59;8.40;83.90
678;DHT22;321;48.814;9.132;2023-03-01T14:04:33;8.40;83.80
678;DHT22;321;48.814;9.132;2023-03-01T14:07:19;8.50;84.30
678;DHT22;321;48.814;9.132;2023-03-01T14:09:48;8.10;84.70
678;DHT22;321;48.814;9.132;2023-03-01T14:12:52;8.00;85.70
678;DHT22;321;48.814;9.132;2023-03-01T14:15:26;8.00;87.40
678;DHT22;321;48.814;9.132;2023-03-01T14:18:17;8.20;86.50
678;DHT22;321;48.814;9.132;2023-03-01T14:20:45;8.20;85.50
678;DHT22;321;48.814;9.132;2023-03-01T14:23:19;8.20;85.40
678;DHT22;321;48.814;9.132;2023-03-01T14:25:59;7.70;86.60
678;DHT22;321;48.814;9.132;2023-03-01T14:28:30;7.80;86.60
678;DHT22;321;48.814;9.132;2023-03-01T14:31:00;7.90;86.60
678;DHT22;321;48.814;9.132;2023-03-01T14:36:10;7.80;87.70
678;DHT22;321;48.814;9.132;2023-03-01T14:38:45;7.80;87.90
678;DHT22;321;48.814;9.132;2023-03-01T14:41:15;7.80;88.10
678;DHT22;321;48.814;9.132;2023-03-01T14:44:05;7.60;87.80
678;DHT22;321;48.814;9.132;2023-03-01T14:46:40;7.60;88.30
678;DHT22;321;48.814;9.132;2023-03-01T14:49:09;7.60;88.70
678;DHT22;321;48.814;9.132;2023-03-01T14:51:40;7.60;88.50
678;DHT22;321;48.814;9.132;2023-03-01T14:56:47;7.60;89.70
678;DHT22;321;48.814;9.132;2023-03-01T14:59:13;7.40;89.00
678;DHT22;321;48.814;9.132;2023-03-01T15:01:40;7.40;89.80
678;DHT22;321;48.814;9.132;2023-03-01T15:04:07;7.50;89.50
678;DHT22;321;48.814;9.132;2023-03-01T15:06:36;7.60;89.60
678;DHT22;321;48.814;9.132;2023-03-01T15:09:03;7.70;89.60
678;DHT22;321;48.814;9.132;2023-03-01T15:11:33;7.70;90.00
678;DHT22;321;48.814;9.132;2023-03-01T15:13:59;7.60;89.90
678;DHT22;321;48.814;9.132;2023-03-01T15:16:32;7.50;89.80
678;DHT22;321;48.814;9.132;2023-03-01T15:18:59;7.50;89.40
678;DHT22;321;48.814;9.132;2023-03-01T15:21:36;7.30;89.30
678;DHT22;321;48.814;9.132;2023-03-01T15:26:49;7.60;90.20
678;DHT22;321;48.814;9.132;2023-03-01T15:29:22;7.70;90.20
678;DHT22;321;48.814;9.132;2023-03-01T15:31:57;7.60;89.30
678;DHT22;321;48.814;9.132;2023-03-01T15:34:25;7.70;89.60
678;DHT22;321;48.814;9.132;2023-03-01T15:36:52;7.50;89.40
678;DHT22;321;48.814;9.132;2023-03-01T15:39:43;7.60;89.50
678;DHT22;321;48.814;9.132;2023-03-01T15:45:08;7.50;88.80
678;DHT22;321;48.814;9.132;2023-03-01T15:47:36;7.60;89.40
678;DHT22;321;48.814;9.132;2023-03-01T15:50:04;7.50;89.10
678;DHT22;321;48.814;9.132;2023-03-01T15:52:40;7.50;88.60
678;DHT22;321;48.814;9.132;2023-03-01T15:55:24;7.40;89.50
678;DHT22;321;48.814;9.132;2023-03-01T15:58:12;7.40;89.80
678;DHT22;321;48.814;9.132;2023-03-01T16:00:38;7.30;89.50
678;DHT22;321;48.814;9.132;2023-03-01T16:03:05;7.30;89.40
678;DHT22;321;48.814;9.132;2023-03-01T16:05:33;7.40;90.10
678;DHT22;321;48.814;9.132;2023-03-01T16:08:00;7.40;90.10
678;DHT22;321;48.814;9.132;2023-03-01T16:10:26;7.40;89.90
678;DHT22;321;48.814;9.132;2023-03-01T16:12:52;7.20;90.10
678;DHT22;321;48.814;9.132;2023-03-01T16:15:23;7.20;90.20
678;DHT22;321;48.814;9.132;2023-03-01T16:17:50;7.30;90.20
678;DHT22;321;48.814;9.132;2023-03-01T16:20:16;7.20;90.00
678;DHT22;321;48.814;9.132;2023-03-01T16:22:42;7.20;90.10
678;DHT22;321;48.814;9.132;2023-03-01T16:25:10;7.20;90.10
678;DHT22;321;48.814;9.132;2023-03-01T16:27:36;7.00;90.10
678;DHT22;321;48.814;9.132;2023-03-01T16:30:03;7.10;90.40
678;DHT22;321;48.814;9.132;2023-03-01T16:32:29;7.10;90.60
678;DHT22;321;48.814;9.132;2023-03-01T16:34:55;7.00;90.60
678;DHT22;321;48.814;9.132;2023-03-01T16:37:20;7.20;90.70
678;DHT22;321;48.814;9.132;2023-03-01T16:39:47;7.20;90.60
678;DHT22;321;48.814;9.132;2023-03-01T16:42:15;7.30;90.50
678;DHT22;321;48.814;9.132;2023-03-01T16:44:41;7.30;90.10
678;DHT22;321;48.814;9.132;2023-03-01T16:47:07;7.20;90.40
678;DHT22;321;48.814;9.132;2023-03-01T16:49:32;7.00;90.10
678;DHT22;321;48.814;9.132;2023-03-01T16:51:58;7.10;90.80
678;DHT22;321;48.814;9.132;2023-03-01T16:54:24;7.20;90.40
678;DHT22;321;48.814;9.132;2023-03-01T16:56:50;7.20;90.40
678;DHT22;321;48.814;9.132;2023-03-01T16:59:15;7.00;90.40
678;DHT22;321;48.814;9.132;2023-03-01T17:01:41;6.90;90.80
678;DHT22;321;48.814;9.132;2023-03-01T17:04:11;6.90;91.30
678;DHT22;321;48.814;9.132;2023-03-01T17:06:37;7.00;91.20
678;DHT22;321;48.814;9.132;2023-03-01T17:09:03;6.90;91.00
678;DHT22;321;48.814;9.132;2023-03-01T17:11:28;6.90;91.20
678;DHT22;321;48.814;9.132;2023-03-01T17:13:54;6.90;91.30
678;DHT22;321;48.814;9.132;2023-03-01T17:16:20;6.90;91.50
678;DHT22;321;48.814;9.132;2023-03-01T17:18:46;6.90;91.70
678;DHT22;321;48.814;9.132;2023-03-01T17:21:12;6.90;91.80
678;DHT22;321;48.814;9.132;2023-03-01T17:23:41;6.80;91.90
678;DHT22;321;48.814;9.132;2023-03-01T17:26:07;6.80;92.00
678;DHT22;321;48.814;9.132;2023-03-01T17:28:35;6.80;92.10
678;DHT22;321;48.814;9.132;2023-03-01T17:31:02;6.60;92.00
678;DHT22;321;48.814;9.132;2023-03-01T17:33:28;6.60;92.00
678;DHT22;321;48.814;9.132;2023-03-01T17:35:57;6.50;92.10
678;DHT22;321;48.814;9.132;2023-03-01T17:38:22;6.50;92.60
678;DHT22;321;48.814;9.132;2023-03-01T17:40:48;6.40;92.40
678;DHT22;321;48.814;9.132;2023-03-01T17:43:15;6.20;92.70
678;DHT22;321;48.814;9.132;2023-03-01T17:45:42;6.30;93.00
678;DHT22;321;48.814;9.132;2023-03-01T17:48:12;6.20;93.10
678;DHT22;321;48.814;9.132;2023-03-01T17:50:38;6.10;93.20
678;DHT22;321;48.814;9.132;2023-03-01T17:53:05;6.00;93.40
678;DHT22;321;48.814;9.132;2023-03-01T17:55:42;5.90;93.70
678;DHT22;321;48.814;9.132;2023-03-01T17:58:09;5.90;93.50
678;DHT22;321;48.814;9.132;2023-03-01T18:00:35;5.80;94.00
678;DHT22;321;48.814;9.132;2023-03-01T18:03:01;5.80;94.00
678;DHT22;321;48.814;9.132;2023-03-01T18:05:30;5.70;94.20
678;DHT22;321;48.814;9.132;2023-03-01T18:07:55;5.50;94.30
678;DHT22;321;48.814;9.132;2023-03-01T18:10:21;5.50;94.60
678;DHT22;321;48.814;9.132;2023-03-01T18:12:46;5.60;94.60
678;DHT22;321;48.814;9.132;2023-03-01T18:15:12;5.50;94.70
678;DHT22;321;48.814;9.132;2023-03-01T18:17:38;5.30;94.80
678;DHT22;321;48.814;9.132;2023-03-01T18:20:05;5.30;95.00
678;DHT22;321;48.814;9.132;2023-03-01T18:22:31;5.30;95.00
678;DHT22;321;48.814;9.132;2023-03-01T18:24:57;5.40;95.00
678;DHT22;321;48.814;9.132;2023-03-01T18:27:23;5.30;95.20
678;DHT22;321;48.814;9.132;2023-03-01T18:29:50;5.40;95.00
678;DHT22;321;48.814;9.132;2023-03-01T18:32:16;5.30;95.20
678;DHT22;321;48.814;9.132;2023-03-01T18:34:42;5.20;95.50
678;DHT22;321;48.814;9.132;2023-03-01T18:37:08;5.20;95.20
678;DHT22;321;48.814;9.132;2023-03-01T18:39:33;5.10;95.60
678;DHT22;321;48.814;9.132;2023-03-01T18:41:59;5.10;95.90
678;DHT22;321;48.814;9.132;2023-03-01T18:44:25;5.00;96.10
678;DHT22;321;48.814;9.132;2023-03-01T18:46:50;5.00;96.10
678;DHT22;321;48.814;9.132;2023-03-01T18:49:20;5.00;96.10
678;DHT22;321;48.814;9.132;2023-03-01T18:51:45;5.80;96.80
678;DHT22;321;48.814;9.132;2023-03-01T18:54:11;4.70;96.60
678;DHT22;321;48.814;9.132;2023-03-01T18:56:37;4.70;96.90